메인 페이지
METAR-TAF:

METAR-TAF

공항 :

타만라세트, 알제리

위도: 22-49N, 경도: 005-28E, 고도: 1377m

현재 날씨관측

예보는 29분 전, 09:00시(UTC)에 발표되었습니다.
동북동16kt
온도 36°C
기압 1019 hPa
시정 10km 이상
1500m 미만 상공 구름 및 적란운 없음

METAR: DAAT 040900Z 06016KT CAVOK 36/// Q1019

시각: 10:29 (09:29 UTC)

예보

예보는 4 시간 29분 전, 05:00시(UTC)에 발표되었습니다.
예보 대상 시간: 04일 06시부터 05일 06시까지 (UTC)
동북동12kt
시정: 8000m
확률 30%
04일 08시부터 04일 15시까지 (UTC)
시정: 3000m
연무
전환 중
04일 12시부터 04일 14시까지 (UTC)
북서12kt
확률 40% :
일시적
04일 14시부터 04일 18시까지 (UTC)
고도 4000ft 상공 구름 조금, 타워링 적운.
고도 4600ft 상공 구름 조금, 적란운.
전환 중
04일 23시부터 05일 02시까지 (UTC)
북동12kt
확률 30% :
일시적
05일 00시부터 05일 06시까지 (UTC)
북동15kt, 순간 최대 풍속 25kt

TAF: DAAT 040500Z 0406/0506 06012KT 8000 NSC PROB30 0408/0415 3000 HZ BECMG 0412/0414 32012KT PROB40 TEMPO 0414/0418 FEW040TCU FEW046CB BECMG 0423/0502 04012KT PROB30 TEMPO 0500/0506 04015G25KT

4,000개 이상의 공항 관측 자료 및 예보 (METAR 및 TAF 보고).

지도상에서 검색 가능한 기상관측소가 노란 점과 빨간 점으로 표시되어 있습니다.

기상관측소 명을 보려면 표시 위로 마우스를 이동하세요.

날씨 관측과 예보를 보려면 클릭하세요.

지도 변경 : 확대하려면 엑스 표시가 있는 녹색 버튼, 축소하려면 빼기 표시가 있는 녹색 버튼, 다음 페이지의 지도를 보려면 녹색 화살표를 클릭하세요.


METAR-TAF: